sensor_id;sensor_type;location;lat;lon;timestamp;temperature;humidity
18041;DHT22;9145;48.588;9.250;2023-06-14T00:00:15;16.40;92.20
18041;DHT22;9145;48.588;9.250;2023-06-14T00:02:42;16.40;91.90
18041;DHT22;9145;48.588;9.250;2023-06-14T00:05:09;16.30;91.60
18041;DHT22;9145;48.588;9.250;2023-06-14T00:07:38;16.30;91.30
18041;DHT22;9145;48.588;9.250;2023-06-14T00:10:08;16.30;91.40
18041;DHT22;9145;48.588;9.250;2023-06-14T00:12:36;16.20;91.30
18041;DHT22;9145;48.588;9.250;2023-06-14T00:15:05;16.20;91.80
18041;DHT22;9145;48.588;9.250;2023-06-14T00:17:32;16.10;93.10
18041;DHT22;9145;48.588;9.250;2023-06-14T00:20:00;16.00;93.50
18041;DHT22;9145;48.588;9.250;2023-06-14T00:22:30;16.00;93.50
18041;DHT22;9145;48.588;9.250;2023-06-14T00:24:58;15.90;93.40
18041;DHT22;9145;48.588;9.250;2023-06-14T00:27:25;15.90;93.80
18041;DHT22;9145;48.588;9.250;2023-06-14T00:29:52;15.90;94.10
18041;DHT22;9145;48.588;9.250;2023-06-14T00:32:20;15.80;94.20
18041;DHT22;9145;48.588;9.250;2023-06-14T00:34:51;15.80;93.90
18041;DHT22;9145;48.588;9.250;2023-06-14T00:37:17;15.80;94.10
18041;DHT22;9145;48.588;9.250;2023-06-14T00:39:44;15.80;94.30
18041;DHT22;9145;48.588;9.250;2023-06-14T00:42:11;15.80;94.40
18041;DHT22;9145;48.588;9.250;2023-06-14T00:44:49;15.70;94.50
18041;DHT22;9145;48.588;9.250;2023-06-14T00:47:15;15.60;94.60
18041;DHT22;9145;48.588;9.250;2023-06-14T00:49:45;15.60;94.70
18041;DHT22;9145;48.588;9.250;2023-06-14T00:52:12;15.60;94.90
18041;DHT22;9145;48.588;9.250;2023-06-14T00:54:40;15.50;94.90
18041;DHT22;9145;48.588;9.250;2023-06-14T00:57:07;15.50;95.20
18041;DHT22;9145;48.588;9.250;2023-06-14T00:59:35;15.50;95.10
18041;DHT22;9145;48.588;9.250;2023-06-14T01:02:05;15.50;95.10
18041;DHT22;9145;48.588;9.250;2023-06-14T01:04:32;15.50;94.80
18041;DHT22;9145;48.588;9.250;2023-06-14T01:07:07;15.40;95.40
18041;DHT22;9145;48.588;9.250;2023-06-14T01:09:48;15.40;95.70
18041;DHT22;9145;48.588;9.250;2023-06-14T01:12:27;15.30;95.50
18041;DHT22;9145;48.588;9.250;2023-06-14T01:14:59;15.30;95.10
18041;DHT22;9145;48.588;9.250;2023-06-14T01:17:27;15.30;95.40
18041;DHT22;9145;48.588;9.250;2023-06-14T01:19:57;15.20;95.50
18041;DHT22;9145;48.588;9.250;2023-06-14T01:22:26;15.20;95.50
18041;DHT22;9145;48.588;9.250;2023-06-14T01:24:55;15.10;95.80
18041;DHT22;9145;48.588;9.250;2023-06-14T01:27:23;15.00;96.30
18041;DHT22;9145;48.588;9.250;2023-06-14T01:29:55;15.00;96.80
18041;DHT22;9145;48.588;9.250;2023-06-14T01:32:23;14.90;96.80
18041;DHT22;9145;48.588;9.250;2023-06-14T01:34:51;14.80;97.20
18041;DHT22;9145;48.588;9.250;2023-06-14T01:37:19;14.70;97.30
18041;DHT22;9145;48.588;9.250;2023-06-14T01:39:47;14.60;97.70
18041;DHT22;9145;48.588;9.250;2023-06-14T01:42:17;14.60;97.60
18041;DHT22;9145;48.588;9.250;2023-06-14T01:44:44;14.50;98.10
18041;DHT22;9145;48.588;9.250;2023-06-14T01:47:13;14.40;97.90
18041;DHT22;9145;48.588;9.250;2023-06-14T01:49:41;14.40;98.10
18041;DHT22;9145;48.588;9.250;2023-06-14T01:52:07;14.30;98.10
18041;DHT22;9145;48.588;9.250;2023-06-14T01:54:35;14.40;98.20
18041;DHT22;9145;48.588;9.250;2023-06-14T01:57:07;14.40;97.80
18041;DHT22;9145;48.588;9.250;2023-06-14T01:59:35;14.40;98.30
18041;DHT22;9145;48.588;9.250;2023-06-14T02:02:02;14.50;98.10
18041;DHT22;9145;48.588;9.250;2023-06-14T02:04:29;14.50;97.40
18041;DHT22;9145;48.588;9.250;2023-06-14T02:06:56;14.50;97.80
18041;DHT22;9145;48.588;9.250;2023-06-14T02:09:23;14.50;97.60
18041;DHT22;9145;48.588;9.250;2023-06-14T02:11:50;14.40;97.80
18041;DHT22;9145;48.588;9.250;2023-06-14T02:14:17;14.40;98.10
18041;DHT22;9145;48.588;9.250;2023-06-14T02:16:45;14.30;98.20
18041;DHT22;9145;48.588;9.250;2023-06-14T02:19:14;14.30;98.50
18041;DHT22;9145;48.588;9.250;2023-06-14T02:21:41;14.20;98.70
18041;DHT22;9145;48.588;9.250;2023-06-14T02:24:08;14.10;99.10
18041;DHT22;9145;48.588;9.250;2023-06-14T02:26:35;14.10;99.30
18041;DHT22;9145;48.588;9.250;2023-06-14T02:29:03;14.00;99.30
18041;DHT22;9145;48.588;9.250;2023-06-14T02:31:31;14.00;99.50
18041;DHT22;9145;48.588;9.250;2023-06-14T02:33:59;13.90;99.90
18041;DHT22;9145;48.588;9.250;2023-06-14T02:36:26;13.90;99.70
18041;DHT22;9145;48.588;9.250;2023-06-14T02:38:52;13.80;99.90
18041;DHT22;9145;48.588;9.250;2023-06-14T02:41:19;13.70;99.90
18041;DHT22;9145;48.588;9.250;2023-06-14T02:43:46;13.60;99.90
18041;DHT22;9145;48.588;9.250;2023-06-14T02:46:13;13.60;99.90
18041;DHT22;9145;48.588;9.250;2023-06-14T02:48:40;13.60;99.90
18041;DHT22;9145;48.588;9.250;2023-06-14T02:51:08;13.50;99.90
18041;DHT22;9145;48.588;9.250;2023-06-14T02:53:35;13.40;99.90
18041;DHT22;9145;48.588;9.250;2023-06-14T02:56:02;13.40;99.90
18041;DHT22;9145;48.588;9.250;2023-06-14T02:58:29;13.30;99.90
18041;DHT22;9145;48.588;9.250;2023-06-14T03:00:56;13.20;99.90
18041;DHT22;9145;48.588;9.250;2023-06-14T03:03:23;13.20;99.90
18041;DHT22;9145;48.588;9.250;2023-06-14T03:05:50;13.20;99.90
18041;DHT22;9145;48.588;9.250;2023-06-14T03:08:18;13.20;99.90
18041;DHT22;9145;48.588;9.250;2023-06-14T03:10:46;13.10;99.90
18041;DHT22;9145;48.588;9.250;2023-06-14T03:13:13;13.10;99.90
18041;DHT22;9145;48.588;9.250;2023-06-14T03:15:41;13.00;99.90
18041;DHT22;9145;48.588;9.250;2023-06-14T03:18:08;13.00;99.90
18041;DHT22;9145;48.588;9.250;2023-06-14T03:20:35;12.90;99.90
18041;DHT22;9145;48.588;9.250;2023-06-14T03:23:02;12.90;99.90
18041;DHT22;9145;48.588;9.250;2023-06-14T03:25:32;12.90;99.90
18041;DHT22;9145;48.588;9.250;2023-06-14T03:28:01;12.90;99.90
18041;DHT22;9145;48.588;9.250;2023-06-14T03:30:29;12.90;99.90
18041;DHT22;9145;48.588;9.250;2023-06-14T03:32:56;12.90;99.90
18041;DHT22;9145;48.588;9.250;2023-06-14T03:35:23;12.80;99.90
18041;DHT22;9145;48.588;9.250;2023-06-14T03:37:50;12.80;99.90
18041;DHT22;9145;48.588;9.250;2023-06-14T03:40:18;12.70;99.90
18041;DHT22;9145;48.588;9.250;2023-06-14T03:42:47;12.80;99.90
18041;DHT22;9145;48.588;9.250;2023-06-14T03:45:13;12.70;99.90
18041;DHT22;9145;48.588;9.250;2023-06-14T03:47:40;12.80;99.90
18041;DHT22;9145;48.588;9.250;2023-06-14T03:50:07;12.90;99.90
18041;DHT22;9145;48.588;9.250;2023-06-14T03:52:34;13.00;99.90
18041;DHT22;9145;48.588;9.250;2023-06-14T03:55:02;13.10;99.90
18041;DHT22;9145;48.588;9.250;2023-06-14T03:57:30;13.20;99.90
18041;DHT22;9145;48.588;9.250;2023-06-14T03:59:58;13.20;99.90
18041;DHT22;9145;48.588;9.250;2023-06-14T04:02:25;13.20;99.90
18041;DHT22;9145;48.588;9.250;2023-06-14T04:04:54;13.20;99.90
18041;DHT22;9145;48.588;9.250;2023-06-14T04:07:21;13.10;99.90
18041;DHT22;9145;48.588;9.250;2023-06-14T04:09:49;13.20;99.90
18041;DHT22;9145;48.588;9.250;2023-06-14T04:12:15;13.10;99.90
18041;DHT22;9145;48.588;9.250;2023-06-14T04:14:43;13.10;99.90
18041;DHT22;9145;48.588;9.250;2023-06-14T04:17:11;13.00;99.90
18041;DHT22;9145;48.588;9.250;2023-06-14T04:19:38;13.00;99.90
18041;DHT22;9145;48.588;9.250;2023-06-14T04:22:05;13.00;99.90
18041;DHT22;9145;48.588;9.250;2023-06-14T04:24:32;13.10;99.90
18041;DHT22;9145;48.588;9.250;2023-06-14T04:27:01;13.10;99.90
18041;DHT22;9145;48.588;9.250;2023-06-14T04:29:28;13.00;99.90
18041;DHT22;9145;48.588;9.250;2023-06-14T04:31:55;12.90;99.90
18041;DHT22;9145;48.588;9.250;2023-06-14T04:34:25;12.80;99.90
18041;DHT22;9145;48.588;9.250;2023-06-14T04:36:55;12.90;99.90
18041;DHT22;9145;48.588;9.250;2023-06-14T04:39:24;13.00;99.90
18041;DHT22;9145;48.588;9.250;2023-06-14T04:41:51;12.90;99.90
18041;DHT22;9145;48.588;9.250;2023-06-14T04:44:23;13.00;99.90
18041;DHT22;9145;48.588;9.250;2023-06-14T04:46:55;13.30;99.90
18041;DHT22;9145;48.588;9.250;2023-06-14T04:49:25;13.40;99.90
18041;DHT22;9145;48.588;9.250;2023-06-14T04:51:52;13.40;99.90
18041;DHT22;9145;48.588;9.250;2023-06-14T04:54:24;13.40;99.90
18041;DHT22;9145;48.588;9.250;2023-06-14T04:56:51;13.50;99.90
18041;DHT22;9145;48.588;9.250;2023-06-14T04:59:18;13.50;99.90
18041;DHT22;9145;48.588;9.250;2023-06-14T05:01:45;13.50;99.90
18041;DHT22;9145;48.588;9.250;2023-06-14T05:04:13;13.50;99.90
18041;DHT22;9145;48.588;9.250;2023-06-14T05:06:41;13.50;99.90
18041;DHT22;9145;48.588;9.250;2023-06-14T05:09:10;13.70;99.90
18041;DHT22;9145;48.588;9.250;2023-06-14T05:11:37;13.70;99.90
18041;DHT22;9145;48.588;9.250;2023-06-14T05:14:03;13.80;99.90
18041;DHT22;9145;48.588;9.250;2023-06-14T05:16:31;13.90;99.90
18041;DHT22;9145;48.588;9.250;2023-06-14T05:18:58;13.90;99.90
18041;DHT22;9145;48.588;9.250;2023-06-14T05:21:25;14.00;99.90
18041;DHT22;9145;48.588;9.250;2023-06-14T05:23:53;14.00;99.90
18041;DHT22;9145;48.588;9.250;2023-06-14T05:26:21;14.00;99.90
18041;DHT22;9145;48.588;9.250;2023-06-14T05:28:49;14.00;99.90
18041;DHT22;9145;48.588;9.250;2023-06-14T05:31:18;14.10;99.90
18041;DHT22;9145;48.588;9.250;2023-06-14T05:33:45;14.20;99.90
18041;DHT22;9145;48.588;9.250;2023-06-14T05:36:12;14.30;99.90
18041;DHT22;9145;48.588;9.250;2023-06-14T05:38:39;14.40;99.90
18041;DHT22;9145;48.588;9.250;2023-06-14T05:41:07;14.50;99.90
18041;DHT22;9145;48.588;9.250;2023-06-14T05:43:34;14.60;99.90
18041;DHT22;9145;48.588;9.250;2023-06-14T05:46:01;14.70;99.90
18041;DHT22;9145;48.588;9.250;2023-06-14T05:48:28;14.70;99.90
18041;DHT22;9145;48.588;9.250;2023-06-14T05:50:55;14.80;99.90
18041;DHT22;9145;48.588;9.250;2023-06-14T05:53:22;14.90;99.90
18041;DHT22;9145;48.588;9.250;2023-06-14T05:55:49;14.90;99.90
18041;DHT22;9145;48.588;9.250;2023-06-14T05:58:18;15.00;99.90
18041;DHT22;9145;48.588;9.250;2023-06-14T06:00:45;15.20;99.90
18041;DHT22;9145;48.588;9.250;2023-06-14T06:03:12;15.30;99.90
18041;DHT22;9145;48.588;9.250;2023-06-14T06:05:39;15.20;99.90
18041;DHT22;9145;48.588;9.250;2023-06-14T06:08:05;15.40;99.90
18041;DHT22;9145;48.588;9.250;2023-06-14T06:10:32;15.50;99.90
18041;DHT22;9145;48.588;9.250;2023-06-14T06:12:59;15.50;99.90
18041;DHT22;9145;48.588;9.250;2023-06-14T06:15:27;15.70;99.90
18041;DHT22;9145;48.588;9.250;2023-06-14T06:17:54;15.90;99.20
18041;DHT22;9145;48.588;9.250;2023-06-14T06:20:21;16.00;99.50
18041;DHT22;9145;48.588;9.250;2023-06-14T06:22:53;16.10;98.10
18041;DHT22;9145;48.588;9.250;2023-06-14T06:25:19;16.20;97.90
18041;DHT22;9145;48.588;9.250;2023-06-14T06:27:47;16.20;98.10
18041;DHT22;9145;48.588;9.250;2023-06-14T06:30:16;16.20;98.20
18041;DHT22;9145;48.588;9.250;2023-06-14T06:32:44;16.40;98.20
18041;DHT22;9145;48.588;9.250;2023-06-14T06:35:11;16.50;98.20
18041;DHT22;9145;48.588;9.250;2023-06-14T06:37:38;16.60;97.90
18041;DHT22;9145;48.588;9.250;2023-06-14T06:40:06;16.70;97.30
18041;DHT22;9145;48.588;9.250;2023-06-14T06:42:33;16.80;97.10
18041;DHT22;9145;48.588;9.250;2023-06-14T06:45:00;16.90;97.10
18041;DHT22;9145;48.588;9.250;2023-06-14T06:47:27;17.00;97.30
18041;DHT22;9145;48.588;9.250;2023-06-14T06:49:55;17.20;97.30
18041;DHT22;9145;48.588;9.250;2023-06-14T06:52:22;17.20;96.90
18041;DHT22;9145;48.588;9.250;2023-06-14T06:54:48;17.40;96.80
18041;DHT22;9145;48.588;9.250;2023-06-14T06:57:20;17.60;96.60
18041;DHT22;9145;48.588;9.250;2023-06-14T06:59:48;17.90;95.40
18041;DHT22;9145;48.588;9.250;2023-06-14T07:02:14;18.00;94.40
18041;DHT22;9145;48.588;9.250;2023-06-14T07:04:41;17.90;94.50
18041;DHT22;9145;48.588;9.250;2023-06-14T07:07:09;18.10;94.70
18041;DHT22;9145;48.588;9.250;2023-06-14T07:09:36;18.30;94.10
18041;DHT22;9145;48.588;9.250;2023-06-14T07:12:04;18.40;94.00
18041;DHT22;9145;48.588;9.250;2023-06-14T07:14:31;18.60;94.20
18041;DHT22;9145;48.588;9.250;2023-06-14T07:16:58;18.70;94.00
18041;DHT22;9145;48.588;9.250;2023-06-14T07:19:24;18.60;94.10
18041;DHT22;9145;48.588;9.250;2023-06-14T07:21:51;18.60;94.10
18041;DHT22;9145;48.588;9.250;2023-06-14T07:24:19;18.60;94.40
18041;DHT22;9145;48.588;9.250;2023-06-14T07:26:47;18.80;94.30
18041;DHT22;9145;48.588;9.250;2023-06-14T07:29:14;18.90;93.80
18041;DHT22;9145;48.588;9.250;2023-06-14T07:31:42;19.10;93.80
18041;DHT22;9145;48.588;9.250;2023-06-14T07:34:09;19.10;93.90
18041;DHT22;9145;48.588;9.250;2023-06-14T07:36:36;19.10;93.50
18041;DHT22;9145;48.588;9.250;2023-06-14T07:39:03;19.30;94.10
18041;DHT22;9145;48.588;9.250;2023-06-14T07:41:33;19.50;94.00
18041;DHT22;9145;48.588;9.250;2023-06-14T07:44:00;19.60;93.60
18041;DHT22;9145;48.588;9.250;2023-06-14T07:46:27;19.50;93.70
18041;DHT22;9145;48.588;9.250;2023-06-14T07:48:54;19.60;93.60
18041;DHT22;9145;48.588;9.250;2023-06-14T07:51:20;19.60;93.40
18041;DHT22;9145;48.588;9.250;2023-06-14T07:53:48;19.90;93.90
18041;DHT22;9145;48.588;9.250;2023-06-14T07:56:15;20.00;93.00
18041;DHT22;9145;48.588;9.250;2023-06-14T07:58:44;20.20;93.50
18041;DHT22;9145;48.588;9.250;2023-06-14T08:01:10;20.40;92.40
18041;DHT22;9145;48.588;9.250;2023-06-14T08:03:37;20.50;92.60
18041;DHT22;9145;48.588;9.250;2023-06-14T08:06:05;20.60;92.10
18041;DHT22;9145;48.588;9.250;2023-06-14T08:08:32;20.90;91.80
18041;DHT22;9145;48.588;9.250;2023-06-14T08:10:59;20.90;90.60
18041;DHT22;9145;48.588;9.250;2023-06-14T08:13:26;20.80;90.60
18041;DHT22;9145;48.588;9.250;2023-06-14T08:15:54;21.00;90.20
18041;DHT22;9145;48.588;9.250;2023-06-14T08:18:23;21.20;90.40
18041;DHT22;9145;48.588;9.250;2023-06-14T08:20:50;21.30;90.30
18041;DHT22;9145;48.588;9.250;2023-06-14T08:23:17;21.40;89.20
18041;DHT22;9145;48.588;9.250;2023-06-14T08:25:46;21.50;89.90
18041;DHT22;9145;48.588;9.250;2023-06-14T08:28:13;21.70;90.20
18041;DHT22;9145;48.588;9.250;2023-06-14T08:30:41;22.00;89.30
18041;DHT22;9145;48.588;9.250;2023-06-14T08:33:09;22.10;89.10
18041;DHT22;9145;48.588;9.250;2023-06-14T08:35:36;22.30;87.40
18041;DHT22;9145;48.588;9.250;2023-06-14T08:38:05;22.50;87.40
18041;DHT22;9145;48.588;9.250;2023-06-14T08:40:35;22.60;87.20
18041;DHT22;9145;48.588;9.250;2023-06-14T08:43:03;22.60;86.90
18041;DHT22;9145;48.588;9.250;2023-06-14T08:45:30;22.30;86.80
18041;DHT22;9145;48.588;9.250;2023-06-14T08:47:57;22.40;88.70
18041;DHT22;9145;48.588;9.250;2023-06-14T08:50:27;22.60;88.50
18041;DHT22;9145;48.588;9.250;2023-06-14T08:52:56;22.70;86.80
18041;DHT22;9145;48.588;9.250;2023-06-14T08:55:27;22.60;86.20
18041;DHT22;9145;48.588;9.250;2023-06-14T08:57:55;22.60;86.30
18041;DHT22;9145;48.588;9.250;2023-06-14T09:00:24;22.40;86.70
18041;DHT22;9145;48.588;9.250;2023-06-14T09:02:51;22.40;88.20
18041;DHT22;9145;48.588;9.250;2023-06-14T09:05:22;22.70;89.70
18041;DHT22;9145;48.588;9.250;2023-06-14T09:07:50;23.10;86.80
18041;DHT22;9145;48.588;9.250;2023-06-14T09:10:18;23.30;86.40
18041;DHT22;9145;48.588;9.250;2023-06-14T09:12:45;23.50;85.80
18041;DHT22;9145;48.588;9.250;2023-06-14T09:15:12;23.60;86.10
18041;DHT22;9145;48.588;9.250;2023-06-14T09:17:40;23.80;85.20
18041;DHT22;9145;48.588;9.250;2023-06-14T09:20:08;24.00;85.40
18041;DHT22;9145;48.588;9.250;2023-06-14T09:22:36;24.20;85.50
18041;DHT22;9145;48.588;9.250;2023-06-14T09:25:05;24.40;84.50
18041;DHT22;9145;48.588;9.250;2023-06-14T09:27:33;24.20;83.80
18041;DHT22;9145;48.588;9.250;2023-06-14T09:30:02;24.30;83.60
18041;DHT22;9145;48.588;9.250;2023-06-14T09:32:29;24.60;84.40
18041;DHT22;9145;48.588;9.250;2023-06-14T09:34:56;24.50;82.80
18041;DHT22;9145;48.588;9.250;2023-06-14T09:37:30;24.50;81.70
18041;DHT22;9145;48.588;9.250;2023-06-14T09:39:58;24.30;80.80
18041;DHT22;9145;48.588;9.250;2023-06-14T09:42:26;24.40;81.80
18041;DHT22;9145;48.588;9.250;2023-06-14T09:44:55;24.70;83.50
18041;DHT22;9145;48.588;9.250;2023-06-14T09:47:22;24.80;79.70
18041;DHT22;9145;48.588;9.250;2023-06-14T09:49:50;25.00;80.90
18041;DHT22;9145;48.588;9.250;2023-06-14T09:52:18;25.10;79.80
18041;DHT22;9145;48.588;9.250;2023-06-14T09:54:46;25.00;81.40
18041;DHT22;9145;48.588;9.250;2023-06-14T09:57:15;24.90;77.50
18041;DHT22;9145;48.588;9.250;2023-06-14T09:59:45;24.50;80.30
18041;DHT22;9145;48.588;9.250;2023-06-14T10:02:18;24.40;77.60
18041;DHT22;9145;48.588;9.250;2023-06-14T10:04:53;24.60;77.10
18041;DHT22;9145;48.588;9.250;2023-06-14T10:07:20;24.60;77.90
18041;DHT22;9145;48.588;9.250;2023-06-14T10:09:49;24.70;76.90
18041;DHT22;9145;48.588;9.250;2023-06-14T10:12:16;24.80;78.70
18041;DHT22;9145;48.588;9.250;2023-06-14T10:14:49;25.30;79.90
18041;DHT22;9145;48.588;9.250;2023-06-14T10:17:22;25.40;73.40
18041;DHT22;9145;48.588;9.250;2023-06-14T10:19:56;25.20;72.40
18041;DHT22;9145;48.588;9.250;2023-06-14T10:22:30;24.80;71.20
18041;DHT22;9145;48.588;9.250;2023-06-14T10:24:59;24.50;73.10
18041;DHT22;9145;48.588;9.250;2023-06-14T10:27:26;24.10;72.80
18041;DHT22;9145;48.588;9.250;2023-06-14T10:30:06;23.80;74.10
18041;DHT22;9145;48.588;9.250;2023-06-14T10:32:34;23.90;73.20
18041;DHT22;9145;48.588;9.250;2023-06-14T10:35:05;23.70;72.80
18041;DHT22;9145;48.588;9.250;2023-06-14T10:37:32;23.50;76.20
18041;DHT22;9145;48.588;9.250;2023-06-14T10:39:59;23.70;76.30
18041;DHT22;9145;48.588;9.250;2023-06-14T10:42:32;23.90;75.00
18041;DHT22;9145;48.588;9.250;2023-06-14T10:44:59;24.30;76.30
18041;DHT22;9145;48.588;9.250;2023-06-14T10:47:29;25.00;80.20
18041;DHT22;9145;48.588;9.250;2023-06-14T10:49:58;25.80;75.70
18041;DHT22;9145;48.588;9.250;2023-06-14T10:52:31;26.20;73.30
18041;DHT22;9145;48.588;9.250;2023-06-14T10:55:04;26.20;72.90
18041;DHT22;9145;48.588;9.250;2023-06-14T10:57:32;26.30;73.40
18041;DHT22;9145;48.588;9.250;2023-06-14T10:59:59;26.60;72.40
18041;DHT22;9145;48.588;9.250;2023-06-14T11:02:50;26.60;70.90
18041;DHT22;9145;48.588;9.250;2023-06-14T11:05:24;26.20;70.90
18041;DHT22;9145;48.588;9.250;2023-06-14T11:08:04;25.30;72.40
18041;DHT22;9145;48.588;9.250;2023-06-14T11:10:37;24.80;73.00
18041;DHT22;9145;48.588;9.250;2023-06-14T11:13:04;24.40;73.00
18041;DHT22;9145;48.588;9.250;2023-06-14T11:15:32;24.30;75.00
18041;DHT22;9145;48.588;9.250;2023-06-14T11:18:02;24.70;73.20
18041;DHT22;9145;48.588;9.250;2023-06-14T11:20:31;24.90;73.20
18041;DHT22;9145;48.588;9.250;2023-06-14T11:22:58;25.30;73.20
18041;DHT22;9145;48.588;9.250;2023-06-14T11:25:26;25.90;73.20
18041;DHT22;9145;48.588;9.250;2023-06-14T11:27:54;26.40;70.00
18041;DHT22;9145;48.588;9.250;2023-06-14T11:30:22;26.60;69.00
18041;DHT22;9145;48.588;9.250;2023-06-14T11:32:50;26.60;67.60
18041;DHT22;9145;48.588;9.250;2023-06-14T11:35:20;26.20;69.10
18041;DHT22;9145;48.588;9.250;2023-06-14T11:37:48;26.30;71.70
18041;DHT22;9145;48.588;9.250;2023-06-14T11:40:17;26.90;71.50
18041;DHT22;9145;48.588;9.250;2023-06-14T11:42:44;27.20;70.80
18041;DHT22;9145;48.588;9.250;2023-06-14T11:45:11;27.90;72.00
18041;DHT22;9145;48.588;9.250;2023-06-14T11:47:39;27.60;68.60
18041;DHT22;9145;48.588;9.250;2023-06-14T11:50:07;27.00;68.70
18041;DHT22;9145;48.588;9.250;2023-06-14T11:52:36;26.90;69.60
18041;DHT22;9145;48.588;9.250;2023-06-14T11:55:05;26.60;69.70
18041;DHT22;9145;48.588;9.250;2023-06-14T11:57:34;26.60;70.60
18041;DHT22;9145;48.588;9.250;2023-06-14T12:00:03;26.50;70.70
18041;DHT22;9145;48.588;9.250;2023-06-14T12:02:33;26.60;74.70
18041;DHT22;9145;48.588;9.250;2023-06-14T12:05:04;26.90;70.70
18041;DHT22;9145;48.588;9.250;2023-06-14T12:07:33;27.60;72.90
18041;DHT22;9145;48.588;9.250;2023-06-14T12:10:09;27.70;69.90
18041;DHT22;9145;48.588;9.250;2023-06-14T12:12:37;27.80;68.30
18041;DHT22;9145;48.588;9.250;2023-06-14T12:15:05;27.30;68.20
18041;DHT22;9145;48.588;9.250;2023-06-14T12:17:33;27.20;68.90
18041;DHT22;9145;48.588;9.250;2023-06-14T12:20:05;27.00;69.00
18041;DHT22;9145;48.588;9.250;2023-06-14T12:22:36;26.90;69.80
18041;DHT22;9145;48.588;9.250;2023-06-14T12:25:03;26.70;68.60
18041;DHT22;9145;48.588;9.250;2023-06-14T12:27:32;26.70;69.50
18041;DHT22;9145;48.588;9.250;2023-06-14T12:30:00;26.60;69.60
18041;DHT22;9145;48.588;9.250;2023-06-14T12:32:27;26.90;70.80
18041;DHT22;9145;48.588;9.250;2023-06-14T12:34:54;27.00;66.80
18041;DHT22;9145;48.588;9.250;2023-06-14T12:37:22;26.80;68.60
18041;DHT22;9145;48.588;9.250;2023-06-14T12:39:49;26.90;70.60
18041;DHT22;9145;48.588;9.250;2023-06-14T12:42:16;27.40;71.20
18041;DHT22;9145;48.588;9.250;2023-06-14T12:44:45;27.70;68.10
18041;DHT22;9145;48.588;9.250;2023-06-14T12:47:11;27.60;71.90
18041;DHT22;9145;48.588;9.250;2023-06-14T12:49:39;27.30;68.30
18041;DHT22;9145;48.588;9.250;2023-06-14T12:52:08;27.10;70.60
18041;DHT22;9145;48.588;9.250;2023-06-14T12:54:35;27.00;70.60
18041;DHT22;9145;48.588;9.250;2023-06-14T12:57:02;26.80;71.30
18041;DHT22;9145;48.588;9.250;2023-06-14T12:59:29;26.90;71.00
18041;DHT22;9145;48.588;9.250;2023-06-14T13:02:11;26.90;72.10
18041;DHT22;9145;48.588;9.250;2023-06-14T13:04:37;27.30;69.30
18041;DHT22;9145;48.588;9.250;2023-06-14T13:07:05;27.30;69.50
18041;DHT22;9145;48.588;9.250;2023-06-14T13:09:32;27.30;71.30
18041;DHT22;9145;48.588;9.250;2023-06-14T13:11:58;27.80;71.00
18041;DHT22;9145;48.588;9.250;2023-06-14T13:14:25;28.30;68.20
18041;DHT22;9145;48.588;9.250;2023-06-14T13:16:52;28.30;65.80
18041;DHT22;9145;48.588;9.250;2023-06-14T13:19:21;28.70;65.10
18041;DHT22;9145;48.588;9.250;2023-06-14T13:21:48;28.30;68.00
18041;DHT22;9145;48.588;9.250;2023-06-14T13:24:15;28.40;67.10
18041;DHT22;9145;48.588;9.250;2023-06-14T13:26:42;28.10;65.60
18041;DHT22;9145;48.588;9.250;2023-06-14T13:29:09;27.60;65.30
18041;DHT22;9145;48.588;9.250;2023-06-14T13:31:36;27.20;66.70
18041;DHT22;9145;48.588;9.250;2023-06-14T13:34:03;27.50;69.30
18041;DHT22;9145;48.588;9.250;2023-06-14T13:36:31;28.40;69.70
18041;DHT22;9145;48.588;9.250;2023-06-14T13:38:58;29.20;66.70
18041;DHT22;9145;48.588;9.250;2023-06-14T13:41:26;29.80;65.60
18041;DHT22;9145;48.588;9.250;2023-06-14T13:44:00;30.00;65.50
18041;DHT22;9145;48.588;9.250;2023-06-14T13:46:29;29.70;64.30
18041;DHT22;9145;48.588;9.250;2023-06-14T13:48:56;29.70;66.70
18041;DHT22;9145;48.588;9.250;2023-06-14T13:51:23;30.20;66.20
18041;DHT22;9145;48.588;9.250;2023-06-14T13:53:53;29.90;61.90
18041;DHT22;9145;48.588;9.250;2023-06-14T13:56:21;29.60;62.40
18041;DHT22;9145;48.588;9.250;2023-06-14T13:58:49;29.60;62.30
18041;DHT22;9145;48.588;9.250;2023-06-14T14:01:16;29.70;60.80
18041;DHT22;9145;48.588;9.250;2023-06-14T14:03:45;30.10;62.40
18041;DHT22;9145;48.588;9.250;2023-06-14T14:06:13;30.70;61.00
18041;DHT22;9145;48.588;9.250;2023-06-14T14:08:40;30.50;60.30
18041;DHT22;9145;48.588;9.250;2023-06-14T14:11:08;30.40;59.60
18041;DHT22;9145;48.588;9.250;2023-06-14T14:13:35;30.70;63.10
18041;DHT22;9145;48.588;9.250;2023-06-14T14:16:04;31.10;58.70
18041;DHT22;9145;48.588;9.250;2023-06-14T14:18:31;31.50;59.30
18041;DHT22;9145;48.588;9.250;2023-06-14T14:20:59;31.60;62.70
18041;DHT22;9145;48.588;9.250;2023-06-14T14:23:26;32.00;59.60
18041;DHT22;9145;48.588;9.250;2023-06-14T14:25:53;32.20;61.80
18041;DHT22;9145;48.588;9.250;2023-06-14T14:28:21;32.40;60.50
18041;DHT22;9145;48.588;9.250;2023-06-14T14:30:48;32.10;59.40
18041;DHT22;9145;48.588;9.250;2023-06-14T14:33:15;31.30;59.00
18041;DHT22;9145;48.588;9.250;2023-06-14T14:35:43;30.40;59.90
18041;DHT22;9145;48.588;9.250;2023-06-14T14:38:11;30.10;60.90
18041;DHT22;9145;48.588;9.250;2023-06-14T14:40:39;30.10;61.00
18041;DHT22;9145;48.588;9.250;2023-06-14T14:43:06;30.10;60.80
18041;DHT22;9145;48.588;9.250;2023-06-14T14:45:34;30.40;61.70
18041;DHT22;9145;48.588;9.250;2023-06-14T14:48:01;30.80;61.00
18041;DHT22;9145;48.588;9.250;2023-06-14T14:50:28;30.30;59.30
18041;DHT22;9145;48.588;9.250;2023-06-14T14:52:55;30.00;59.70
18041;DHT22;9145;48.588;9.250;2023-06-14T14:55:22;30.10;59.80
18041;DHT22;9145;48.588;9.250;2023-06-14T14:57:49;30.20;62.70
18041;DHT22;9145;48.588;9.250;2023-06-14T15:00:17;30.20;59.50
18041;DHT22;9145;48.588;9.250;2023-06-14T15:02:45;30.40;60.50
18041;DHT22;9145;48.588;9.250;2023-06-14T15:05:12;30.10;61.00
18041;DHT22;9145;48.588;9.250;2023-06-14T15:07:38;30.00;62.20
18041;DHT22;9145;48.588;9.250;2023-06-14T15:10:07;30.50;60.30
18041;DHT22;9145;48.588;9.250;2023-06-14T15:12:34;30.70;59.50
18041;DHT22;9145;48.588;9.250;2023-06-14T15:15:01;31.20;63.60
18041;DHT22;9145;48.588;9.250;2023-06-14T15:17:29;31.70;59.90
18041;DHT22;9145;48.588;9.250;2023-06-14T15:19:57;31.50;59.90
18041;DHT22;9145;48.588;9.250;2023-06-14T15:22:24;31.60;62.40
18041;DHT22;9145;48.588;9.250;2023-06-14T15:24:51;31.80;59.60
18041;DHT22;9145;48.588;9.250;2023-06-14T15:27:18;32.60;59.10
18041;DHT22;9145;48.588;9.250;2023-06-14T15:29:45;32.80;59.80
18041;DHT22;9145;48.588;9.250;2023-06-14T15:32:11;32.60;59.50
18041;DHT22;9145;48.588;9.250;2023-06-14T15:34:38;32.70;60.20
18041;DHT22;9145;48.588;9.250;2023-06-14T15:37:07;32.80;57.90
18041;DHT22;9145;48.588;9.250;2023-06-14T15:39:34;32.30;59.90
18041;DHT22;9145;48.588;9.250;2023-06-14T15:42:02;32.00;59.30
18041;DHT22;9145;48.588;9.250;2023-06-14T15:44:29;32.20;58.60
18041;DHT22;9145;48.588;9.250;2023-06-14T15:46:56;32.10;58.60
18041;DHT22;9145;48.588;9.250;2023-06-14T15:49:23;32.50;60.10